Time;durP1;ratioP1;P1;durP2;ratioP2;P2;SDS_P1;SDS_P2;PMS_P1;PMS_P2;Temp;Humidity;BMP_temperature;BMP_pressure;BME280_temperature;BME280_humidity;BME280_pressure;Samples;Min_cycle;Max_cycle;Signal;HPM_P1;HPM_P2
2023/12/02 00:01:58;;;;;;;56.20;33.40;;;;;;;-0.44;100.00;98186.13;109613;1250;59991;-68
2023/12/02 00:04:24;;;;;;;60.80;35.20;;;;;;;-0.48;100.00;98190.15;109705;1250;75166;-67
2023/12/02 00:06:51;;;;;;;52.00;32.00;;;;;;;-0.49;100.00;98184.86;109695;1250;59795;-65
2023/12/02 00:09:17;;;;;;;48.60;30.10;;;;;;;-0.48;100.00;98183.36;109658;1250;59810;-68
2023/12/02 00:11:49;;;;;;;47.70;29.10;;;;;;;-0.47;100.00;98174.06;109635;1250;59735;-66
2023/12/02 00:14:15;;;;;;;47.30;29.70;;;;;;;-0.45;100.00;98170.91;109672;1250;59674;-64
2023/12/02 00:16:42;;;;;;;45.30;28.30;;;;;;;-0.45;100.00;98189.17;109634;1250;75131;-64
2023/12/02 00:19:08;;;;;;;40.90;28.20;;;;;;;-0.45;100.00;98188.65;109659;1250;67880;-67
2023/12/02 00:21:35;;;;;;;44.90;29.40;;;;;;;-0.45;100.00;98177.84;109618;1250;72638;-66
2023/12/02 00:24:02;;;;;;;47.60;29.90;;;;;;;-0.47;100.00;98176.26;109642;1250;59772;-66
2023/12/02 00:26:28;;;;;;;49.20;30.00;;;;;;;-0.50;100.00;98177.45;109656;1250;60173;-67
2023/12/02 00:28:55;;;;;;;50.40;31.00;;;;;;;-0.54;100.00;98184.05;109527;1251;75456;-67
2023/12/02 00:31:22;;;;;;;47.40;29.10;;;;;;;-0.56;100.00;98195.57;109643;1250;67710;-66
2023/12/02 00:33:48;;;;;;;47.50;29.20;;;;;;;-0.56;100.00;98193.27;109668;1250;60157;-64
2023/12/02 00:36:15;;;;;;;49.10;30.40;;;;;;;-0.55;100.00;98185.16;109638;1250;59808;-65
2023/12/02 00:38:41;;;;;;;46.90;29.30;;;;;;;-0.53;100.00;98172.86;109664;1251;60282;-66
2023/12/02 00:41:10;;;;;;;50.70;31.00;;;;;;;-0.54;100.00;98171.19;109685;1250;60121;-65
2023/12/02 00:43:36;;;;;;;45.30;30.70;;;;;;;-0.56;100.00;98161.96;109654;1249;68109;-67
2023/12/02 00:46:04;;;;;;;55.40;32.10;;;;;;;-0.59;100.00;98157.17;109631;1250;71206;-66
2023/12/02 00:48:30;;;;;;;51.30;30.60;;;;;;;-0.60;100.00;98156.42;109619;1250;59815;-65
2023/12/02 00:50:57;;;;;;;51.90;31.60;;;;;;;-0.60;100.00;98169.96;109663;1251;60161;-67
2023/12/02 00:53:24;;;;;;;45.80;30.20;;;;;;;-0.61;100.00;98176.97;109672;1250;75430;-65
2023/12/02 00:55:50;;;;;;;54.50;33.90;;;;;;;-0.61;100.00;98177.69;109679;1250;66627;-66
2023/12/02 00:58:17;;;;;;;51.60;32.60;;;;;;;-0.61;100.00;98182.03;109660;1250;59782;-66
2023/12/02 01:00:53;;;;;;;53.80;32.90;;;;;;;-0.63;100.00;98178.52;109592;1250;59686;-66
2023/12/02 01:03:20;;;;;;;61.40;34.90;;;;;;;-0.63;100.00;98187.27;109684;1250;59853;-65
2023/12/02 01:05:47;;;;;;;53.30;31.70;;;;;;;-0.61;100.00;98190.58;109614;1250;75478;-66
2023/12/02 01:08:13;;;;;;;53.60;33.50;;;;;;;-0.57;100.00;98193.42;109618;1250;66897;-64
2023/12/02 01:10:40;;;;;;;46.80;31.30;;;;;;;-0.53;100.00;98200.14;109645;1251;60045;-66
2023/12/02 01:13:06;;;;;;;54.10;33.00;;;;;;;-0.49;100.00;98199.99;109681;1250;59819;-66
2023/12/02 01:15:33;;;;;;;50.70;32.70;;;;;;;-0.44;100.00;98201.63;109644;1250;59663;-66
2023/12/02 01:17:59;;;;;;;56.80;33.70;;;;;;;-0.41;100.00;98202.59;109665;1249;74066;-66
2023/12/02 01:20:26;;;;;;;58.10;34.40;;;;;;;-0.38;100.00;98199.72;109669;1250;67702;-65
2023/12/02 01:22:53;;;;;;;54.50;33.80;;;;;;;-0.39;100.00;98196.86;109633;1250;72425;-65
2023/12/02 01:25:19;;;;;;;61.80;35.90;;;;;;;-0.43;100.00;98202.11;109648;1250;59863;-65
2023/12/02 01:27:46;;;;;;;61.00;35.70;;;;;;;-0.50;100.00;98195.06;109659;1250;59837;-66
2023/12/02 01:30:12;;;;;;;54.50;32.10;;;;;;;-0.55;100.00;98191.14;109627;1250;59842;-66
2023/12/02 01:32:39;;;;;;;56.70;34.00;;;;;;;-0.61;100.00;98202.59;109660;1250;67700;-66
2023/12/02 01:35:06;;;;;;;58.90;33.80;;;;;;;-0.65;100.00;98209.58;109668;1250;60075;-65
2023/12/02 01:37:32;;;;;;;56.60;34.70;;;;;;;-0.69;100.00;98210.09;109634;1251;60958;-66
2023/12/02 01:39:59;;;;;;;59.60;34.30;;;;;;;-0.70;100.00;98207.88;109615;1250;59900;-67
2023/12/02 01:42:27;;;;;;;50.60;32.80;;;;;;;-0.68;100.00;98208.39;109635;1250;76490;-66
2023/12/02 01:44:53;;;;;;;60.70;35.20;;;;;;;-0.63;100.00;98212.02;109598;1250;66514;-65
2023/12/02 01:47:20;;;;;;;61.50;35.80;;;;;;;-0.56;100.00;98210.39;109626;1250;71208;-65
2023/12/02 01:49:46;;;;;;;63.60;35.80;;;;;;;-0.54;100.00;98212.95;109570;1250;59730;-64
2023/12/02 01:52:14;;;;;;;57.40;33.60;;;;;;;-0.52;100.00;98210.36;109625;1251;60139;-65
2023/12/02 01:54:40;;;;;;;60.60;34.90;;;;;;;-0.50;100.00;98210.74;109672;1250;75405;-66
2023/12/02 01:57:07;;;;;;;58.80;35.10;;;;;;;-0.52;100.00;98208.95;109643;1250;59785;-66
2023/12/02 01:59:33;;;;;;;54.70;34.00;;;;;;;-0.55;100.00;98203.64;109570;1250;72553;-65
2023/12/02 02:02:02;;;;;;;62.10;35.30;;;;;;;-0.58;100.00;98202.81;109604;1250;59657;-64
2023/12/02 02:04:29;;;;;;;57.30;34.00;;;;;;;-0.62;100.00;98199.75;109627;1250;59729;-66
2023/12/02 02:06:56;;;;;;;56.80;34.90;;;;;;;-0.66;100.00;98201.50;109603;1250;75228;-65
2023/12/02 02:09:22;;;;;;;58.30;33.40;;;;;;;-0.68;100.00;98206.72;109577;1251;59893;-65
2023/12/02 02:11:49;;;;;;;58.90;34.60;;;;;;;-0.71;100.00;98204.63;109646;1251;71459;-66
2023/12/02 02:14:16;;;;;;;62.30;35.00;;;;;;;-0.73;100.00;98206.95;109619;1250;59795;-65
2023/12/02 02:16:42;;;;;;;57.60;34.00;;;;;;;-0.76;100.00;98211.70;109655;1250;59805;-66
2023/12/02 02:19:09;;;;;;;53.80;34.20;;;;;;;-0.78;100.00;98208.45;109679;1250;75516;-66
2023/12/02 02:21:36;;;;;;;63.50;35.30;;;;;;;-0.78;100.00;98207.90;109432;1250;66799;-66
2023/12/02 02:24:04;;;;;;;63.80;37.80;;;;;;;-0.76;100.00;98198.52;109682;1250;72644;-64
2023/12/02 02:26:30;;;;;;;64.00;37.40;;;;;;;-0.76;100.00;98193.23;109612;1250;59743;-66
2023/12/02 02:28:57;;;;;;;63.70;38.00;;;;;;;-0.77;100.00;98195.60;109637;1250;59843;-66
2023/12/02 02:31:23;;;;;;;58.90;37.00;;;;;;;-0.76;100.00;98200.39;109610;1250;75168;-65
2023/12/02 02:33:50;;;;;;;59.20;37.80;;;;;;;-0.74;100.00;98195.91;109635;1251;59782;-65
2023/12/02 02:36:16;;;;;;;62.90;35.90;;;;;;;-0.73;100.00;98191.45;109622;1250;59778;-66
2023/12/02 02:38:43;;;;;;;53.80;32.20;;;;;;;-0.74;100.00;98181.40;109610;1250;59831;-65
2023/12/02 02:41:09;;;;;;;60.70;36.00;;;;;;;-0.76;100.00;98170.77;109638;1250;59668;-65
2023/12/02 02:43:36;;;;;;;63.40;36.90;;;;;;;-0.79;100.00;98166.70;109636;1250;59833;-66
2023/12/02 02:46:02;;;;;;;56.10;34.50;;;;;;;-0.81;100.00;98159.20;109637;1250;59724;-67
2023/12/02 02:48:29;;;;;;;56.30;33.90;;;;;;;-0.82;100.00;98157.04;109612;1250;72499;-66
2023/12/02 02:50:56;;;;;;;52.70;29.80;;;;;;;-0.85;100.00;98158.50;109628;1250;59754;-66
2023/12/02 02:53:22;;;;;;;47.90;30.20;;;;;;;-0.85;100.00;98165.13;109648;1250;60324;-67
2023/12/02 02:55:49;;;;;;;43.90;28.30;;;;;;;-0.84;100.00;98166.32;109698;1250;75477;-67
2023/12/02 02:58:15;;;;;;;49.10;29.60;;;;;;;-0.87;100.00;98169.16;109675;1250;59754;-66
2023/12/02 03:00:42;;;;;;;49.10;31.10;;;;;;;-0.91;100.00;98170.38;109688;1250;59835;-63
2023/12/02 03:03:08;;;;;;;50.50;30.70;;;;;;;-0.94;100.00;98172.36;109620;1250;59790;-65
2023/12/02 03:05:35;;;;;;;49.00;29.90;;;;;;;-0.97;100.00;98175.57;109614;1250;59730;-66
2023/12/02 03:08:01;;;;;;;48.00;29.60;;;;;;;-0.97;100.00;98173.73;109645;1250;76786;-66
2023/12/02 03:10:28;;;;;;;46.50;29.20;;;;;;;-0.95;100.00;98174.23;109634;1250;66693;-65
2023/12/02 03:12:55;;;;;;;45.50;28.00;;;;;;;-0.91;100.00;98176.29;109605;1250;72545;-65
2023/12/02 03:15:21;;;;;;;44.80;28.00;;;;;;;-0.88;100.00;98177.61;109661;1250;59775;-65
2023/12/02 03:17:48;;;;;;;48.00;29.70;;;;;;;-0.88;100.00;98169.64;109639;1250;59958;-66
2023/12/02 03:20:15;;;;;;;41.90;28.80;;;;;;;-0.91;100.00;98172.52;109689;1250;75428;-65
2023/12/02 03:22:41;;;;;;;50.20;30.60;;;;;;;-0.94;100.00;98175.49;109665;1250;67736;-65
2023/12/02 03:25:08;;;;;;;47.00;29.50;;;;;;;-0.96;100.00;98174.86;109621;1250;60256;-67
2023/12/02 03:27:35;;;;;;;46.40;29.40;;;;;;;-0.98;100.00;98175.51;109620;1250;60326;-66
2023/12/02 03:30:02;;;;;;;45.40;28.20;;;;;;;-0.99;100.00;98176.85;109630;1250;59773;-66
2023/12/02 03:32:29;;;;;;;43.90;28.50;;;;;;;-1.00;100.00;98179.48;109645;1250;75438;-66
2023/12/02 03:34:56;;;;;;;46.80;27.90;;;;;;;-1.01;100.00;98181.30;109679;1250;66932;-64
2023/12/02 03:37:22;;;;;;;50.70;28.80;;;;;;;-1.02;100.00;98184.23;109612;1251;72633;-65
2023/12/02 03:39:49;;;;;;;50.40;30.90;;;;;;;-1.04;100.00;98178.11;109593;1250;59934;-64
2023/12/02 03:42:15;;;;;;;43.70;29.50;;;;;;;-1.06;100.00;98177.73;109629;1251;59905;-65
2023/12/02 03:44:41;;;;;;;51.50;30.20;;;;;;;-1.07;100.00;98174.05;109610;1251;59753;-64
2023/12/02 03:47:08;;;;;;;49.00;31.00;;;;;;;-1.09;100.00;98169.53;109632;1251;59769;-64
2023/12/02 03:49:34;;;;;;;48.60;30.30;;;;;;;-1.10;100.00;98166.48;109606;1251;59777;-67
2023/12/02 03:52:01;;;;;;;42.80;28.10;;;;;;;-1.10;100.00;98159.34;109607;1251;60933;-67
2023/12/02 03:54:28;;;;;;;41.50;25.90;;;;;;;-1.10;100.00;98162.10;109612;1251;59744;-64
2023/12/02 03:56:54;;;;;;;42.80;25.40;;;;;;;-1.10;100.00;98163.35;109599;1250;60314;-66
2023/12/02 03:59:21;;;;;;;39.30;24.20;;;;;;;-1.10;100.00;98165.08;109701;1250;66772;-64
2023/12/02 04:01:47;;;;;;;44.40;27.20;;;;;;;-1.11;100.00;98161.34;109644;1251;71231;-66
2023/12/02 04:04:14;;;;;;;43.10;26.50;;;;;;;-1.12;100.00;98164.73;109628;1251;59712;-64
2023/12/02 04:06:41;;;;;;;41.10;26.00;;;;;;;-1.14;100.00;98166.41;109669;1251;60248;-66
2023/12/02 04:09:09;;;;;;;43.20;26.40;;;;;;;-1.15;100.00;98171.02;109630;1250;75751;-66
2023/12/02 04:11:35;;;;;;;38.00;25.10;;;;;;;-1.16;100.00;98167.96;109645;1251;67007;-66
2023/12/02 04:14:02;;;;;;;39.70;26.20;;;;;;;-1.16;100.00;98164.36;109604;1251;59781;-65
2023/12/02 04:16:28;;;;;;;44.40;26.30;;;;;;;-1.16;100.00;98158.09;109614;1250;60031;-66
2023/12/02 04:18:55;;;;;;;39.30;25.70;;;;;;;-1.16;100.00;98159.48;109603;1250;59627;-66
2023/12/02 04:21:23;;;;;;;40.50;26.00;;;;;;;-1.15;100.00;98156.76;109655;1251;75260;-65
2023/12/02 04:23:50;;;;;;;37.70;24.40;;;;;;;-1.13;100.00;98158.20;109691;1251;67855;-65
2023/12/02 04:26:16;;;;;;;35.80;24.20;;;;;;;-1.12;100.00;98159.33;109610;1251;59725;-65
2023/12/02 04:28:43;;;;;;;35.80;24.00;;;;;;;-1.12;100.00;98153.42;109633;1250;59908;-66
2023/12/02 04:31:09;;;;;;;41.00;26.30;;;;;;;-1.12;100.00;98152.20;109576;1251;60046;-66
2023/12/02 04:33:36;;;;;;;36.30;24.70;;;;;;;-1.13;100.00;98150.02;109651;1251;59984;-65
2023/12/02 04:36:03;;;;;;;34.70;23.50;;;;;;;-1.14;100.00;98151.09;109670;1250;66733;-65
2023/12/02 04:38:30;;;;;;;32.90;22.90;;;;;;;-1.13;100.00;98143.05;109659;1250;72525;-65
2023/12/02 04:40:57;;;;;;;35.20;23.70;;;;;;;-1.13;100.00;98144.58;109628;1251;59845;-65
2023/12/02 04:43:23;;;;;;;34.90;22.80;;;;;;;-1.13;100.00;98138.50;109647;1250;59828;-66
2023/12/02 04:45:50;;;;;;;35.40;23.00;;;;;;;-1.12;100.00;98129.61;109653;1251;59795;-66
2023/12/02 04:48:17;;;;;;;33.10;22.20;;;;;;;-1.12;100.00;98126.90;109671;1250;67736;-65
2023/12/02 04:50:43;;;;;;;33.90;23.30;;;;;;;-1.10;100.00;98120.36;109637;1251;72492;-66
2023/12/02 04:53:10;;;;;;;31.60;22.80;;;;;;;-1.10;100.00;98120.64;109644;1251;59874;-68
2023/12/02 04:55:36;;;;;;;33.80;21.80;;;;;;;-1.09;100.00;98120.57;109673;1250;59814;-68
2023/12/02 04:58:03;;;;;;;29.50;21.60;;;;;;;-1.08;100.00;98118.63;109634;1250;59788;-69
2023/12/02 05:00:29;;;;;;;26.20;19.00;;;;;;;-1.08;100.00;98119.81;109649;1250;67736;-65
2023/12/02 05:02:56;;;;;;;26.20;20.00;;;;;;;-1.08;100.00;98120.69;109627;1251;72438;-66
2023/12/02 05:05:23;;;;;;;31.90;21.00;;;;;;;-1.07;100.00;98118.01;109624;1251;59852;-67
2023/12/02 05:07:49;;;;;;;28.50;18.70;;;;;;;-1.05;100.00;98116.09;109613;1250;59635;-65
2023/12/02 05:10:16;;;;;;;26.10;19.90;;;;;;;-1.04;100.00;98114.38;109643;1251;59742;-65
2023/12/02 05:12:42;;;;;;;27.40;19.70;;;;;;;-1.02;100.00;98114.02;109601;1251;59845;-67
2023/12/02 05:15:09;;;;;;;24.60;18.70;;;;;;;-1.00;100.00;98107.13;109636;1251;72686;-67
2023/12/02 05:17:35;;;;;;;24.40;17.30;;;;;;;-0.99;100.00;98108.59;109582;1251;59781;-67
2023/12/02 05:20:02;;;;;;;24.20;17.70;;;;;;;-0.99;100.00;98111.17;109654;1251;60164;-67
2023/12/02 05:22:29;;;;;;;28.00;19.10;;;;;;;-0.99;100.00;98109.27;109650;1251;75344;-65
2023/12/02 05:24:56;;;;;;;25.00;17.90;;;;;;;-0.99;100.00;98105.98;109677;1251;60469;-65
2023/12/02 05:27:22;;;;;;;23.20;17.20;;;;;;;-0.98;100.00;98103.27;109603;1251;59734;-65
2023/12/02 05:29:49;;;;;;;25.50;17.20;;;;;;;-0.97;100.00;98112.90;109617;1251;61077;-65
2023/12/02 05:32:15;;;;;;;23.00;16.00;;;;;;;-0.96;100.00;98111.48;109649;1251;60668;-65
2023/12/02 05:34:42;;;;;;;24.60;17.20;;;;;;;-0.95;100.00;98119.38;109626;1250;75528;-67
2023/12/02 05:37:09;;;;;;;22.90;16.50;;;;;;;-0.94;100.00;98116.83;109656;1250;67981;-66
2023/12/02 05:39:35;;;;;;;24.20;17.10;;;;;;;-0.92;100.00;98114.44;109585;1250;59940;-65
2023/12/02 05:42:02;;;;;;;28.10;18.30;;;;;;;-0.91;100.00;98111.36;109636;1251;59782;-67
2023/12/02 05:44:30;;;;;;;27.70;17.90;;;;;;;-0.90;100.00;98110.08;109658;1250;59649;-66
2023/12/02 05:46:56;;;;;;;22.20;16.90;;;;;;;-0.89;100.00;98114.19;109652;1251;59929;-65
2023/12/02 05:49:23;;;;;;;23.80;16.80;;;;;;;-0.90;100.00;98118.24;109626;1251;59763;-64
2023/12/02 05:51:49;;;;;;;20.90;15.90;;;;;;;-0.91;100.00;98123.34;109614;1251;59794;-66
2023/12/02 05:54:16;;;;;;;22.80;15.50;;;;;;;-0.91;100.00;98124.77;109617;1250;59752;-65
2023/12/02 05:56:42;;;;;;;21.90;15.80;;;;;;;-0.90;100.00;98122.77;109655;1251;59833;-65
2023/12/02 05:59:09;;;;;;;19.50;15.10;;;;;;;-0.89;100.00;98123.41;109646;1250;75561;-67
2023/12/02 06:01:36;;;;;;;19.30;14.70;;;;;;;-0.89;100.00;98121.77;109653;1250;68042;-67
2023/12/02 06:04:03;;;;;;;19.10;14.20;;;;;;;-0.88;100.00;98123.28;109648;1251;72362;-67
2023/12/02 06:06:30;;;;;;;20.10;14.90;;;;;;;-0.87;100.00;98120.40;109594;1251;61786;-66
2023/12/02 06:08:56;;;;;;;19.20;15.10;;;;;;;-0.86;100.00;98116.85;109635;1251;59679;-66
2023/12/02 06:11:23;;;;;;;18.80;14.20;;;;;;;-0.85;100.00;98121.12;109638;1250;60296;-65
2023/12/02 06:13:49;;;;;;;23.50;17.60;;;;;;;-0.85;100.00;98120.08;109586;1250;59809;-65
2023/12/02 06:16:16;;;;;;;26.10;18.50;;;;;;;-0.85;100.00;98120.21;109580;1251;60191;-65
2023/12/02 06:18:42;;;;;;;24.10;18.20;;;;;;;-0.84;100.00;98119.84;109627;1251;59813;-66
2023/12/02 06:21:11;;;;;;;28.30;20.10;;;;;;;-0.86;100.00;98116.30;109746;1250;60109;-66
2023/12/02 06:23:38;;;;;;;28.60;19.20;;;;;;;-0.87;100.00;98117.62;109649;1251;73982;-67
2023/12/02 06:26:05;;;;;;;31.60;20.30;;;;;;;-0.88;100.00;98118.23;109640;1250;66570;-67
2023/12/02 06:28:31;;;;;;;30.90;21.00;;;;;;;-0.87;100.00;98120.76;109605;1251;72505;-69
2023/12/02 06:30:58;;;;;;;31.70;20.30;;;;;;;-0.87;100.00;98117.10;109502;1251;59753;-67
2023/12/02 06:33:25;;;;;;;30.00;19.60;;;;;;;-0.87;100.00;98115.23;109532;1251;59628;-68
2023/12/02 06:35:51;;;;;;;28.70;20.10;;;;;;;-0.87;100.00;98112.05;109698;1251;74293;-68
2023/12/02 06:38:18;;;;;;;28.10;21.00;;;;;;;-0.86;100.00;98114.39;109658;1251;66602;-68
2023/12/02 06:40:44;;;;;;;26.80;19.90;;;;;;;-0.85;100.00;98116.75;109671;1251;60184;-68
2023/12/02 06:43:12;;;;;;;29.90;20.10;;;;;;;-0.82;100.00;98114.21;109599;1251;59824;-68
2023/12/02 06:45:38;;;;;;;28.90;19.90;;;;;;;-0.81;100.00;98112.08;109609;1251;59656;-67
2023/12/02 06:48:05;;;;;;;29.30;19.40;;;;;;;-0.81;100.00;98108.44;109645;1251;75484;-67
2023/12/02 06:50:32;;;;;;;26.40;17.80;;;;;;;-0.81;100.00;98109.08;109677;1251;67926;-67
2023/12/02 06:52:59;;;;;;;25.40;18.50;;;;;;;-0.80;100.00;98110.20;109670;1251;72383;-69
2023/12/02 06:55:27;;;;;;;27.50;18.00;;;;;;;-0.77;100.00;98115.69;109639;1250;59898;-66
2023/12/02 06:57:59;;;;;;;28.30;17.90;;;;;;;-0.75;100.00;98113.92;109620;1251;60775;-67
2023/12/02 07:00:26;;;;;;;31.70;18.70;;;;;;;-0.72;100.00;98111.41;109606;1251;74107;-67
2023/12/02 07:02:53;;;;;;;24.60;16.90;;;;;;;-0.68;100.00;98105.89;109636;1250;67913;-68
2023/12/02 07:05:19;;;;;;;21.80;14.00;;;;;;;-0.66;100.00;98108.10;109626;1251;71551;-70
2023/12/02 07:07:46;;;;;;;14.60;12.20;;;;;;;-0.63;100.00;98109.04;109581;1251;59771;-64
2023/12/02 07:10:13;;;;;;;14.30;11.10;;;;;;;-0.60;100.00;98106.90;109571;1250;59746;-67
2023/12/02 07:12:40;;;;;;;14.10;10.30;;;;;;;-0.58;100.00;98109.35;109655;1251;75701;-64
2023/12/02 07:15:07;;;;;;;13.20;11.00;;;;;;;-0.56;100.00;98110.43;109683;1250;67965;-69
2023/12/02 07:17:33;;;;;;;16.00;11.10;;;;;;;-0.55;100.00;98109.27;109610;1251;72742;-72
2023/12/02 07:20:00;;;;;;;14.50;10.30;;;;;;;-0.54;100.00;98105.02;109586;1250;59776;-72
2023/12/02 07:22:26;;;;;;;11.20;9.00;;;;;;;-0.52;100.00;98110.36;109571;1251;59997;-67
2023/12/02 07:24:53;;;;;;;10.50;8.10;;;;;;;-0.49;100.00;98111.16;109637;1251;75242;-69
2023/12/02 07:27:20;;;;;;;12.80;9.10;;;;;;;-0.47;100.00;98114.80;109676;1251;68407;-71
2023/12/02 07:29:46;;;;;;;10.10;8.30;;;;;;;-0.45;100.00;98116.06;109653;1251;71301;-69
2023/12/02 07:32:16;;;;;;;10.70;8.00;;;;;;;-0.45;100.00;98118.11;109599;1251;59733;-61
2023/12/02 07:34:42;;;;;;;10.70;8.10;;;;;;;-0.43;100.00;98117.59;109610;1251;59812;-68
2023/12/02 07:37:09;;;;;;;9.00;7.30;;;;;;;-0.42;100.00;98112.98;109678;1251;73252;-68
2023/12/02 07:39:36;;;;;;;10.50;8.40;;;;;;;-0.40;100.00;98118.06;109631;1250;67951;-65
2023/12/02 07:42:02;;;;;;;10.10;8.00;;;;;;;-0.38;100.00;98126.36;109659;1251;72461;-71
2023/12/02 07:44:29;;;;;;;10.20;8.60;;;;;;;-0.35;100.00;98129.07;109631;1251;59757;-70
2023/12/02 07:46:55;;;;;;;11.60;9.80;;;;;;;-0.35;100.00;98129.98;109593;1250;59848;-70
2023/12/02 07:49:22;;;;;;;9.70;8.30;;;;;;;-0.36;100.00;98134.08;109626;1250;75457;-70
2023/12/02 07:51:49;;;;;;;12.00;9.70;;;;;;;-0.37;100.00;98128.60;109610;1251;67166;-70
2023/12/02 07:54:15;;;;;;;12.30;9.80;;;;;;;-0.39;100.00;98125.92;109558;1251;71313;-71
2023/12/02 07:56:42;;;;;;;10.90;9.30;;;;;;;-0.40;100.00;98126.18;109598;1250;60219;-72
2023/12/02 07:59:08;;;;;;;9.70;8.00;;;;;;;-0.41;100.00;98125.94;109574;1250;60102;-70
2023/12/02 08:01:35;;;;;;;9.70;8.60;;;;;;;-0.41;100.00;98122.68;109567;1251;75144;-73
2023/12/02 08:04:02;;;;;;;10.90;8.80;;;;;;;-0.42;100.00;98116.77;109596;1250;67778;-75
2023/12/02 08:06:28;;;;;;;9.50;7.90;;;;;;;-0.42;100.00;98118.72;109580;1251;72512;-74
2023/12/02 08:08:55;;;;;;;11.00;8.00;;;;;;;-0.42;100.00;98122.92;109604;1251;59787;-72
2023/12/02 08:11:22;;;;;;;10.40;8.70;;;;;;;-0.43;100.00;98122.98;109634;1250;59686;-73
2023/12/02 08:13:48;;;;;;;10.20;8.20;;;;;;;-0.43;100.00;98120.91;109583;1251;75129;-71
2023/12/02 08:16:15;;;;;;;10.00;7.60;;;;;;;-0.42;100.00;98111.05;109568;1250;66951;-76
2023/12/02 08:18:41;;;;;;;11.30;9.20;;;;;;;-0.41;100.00;98110.05;109617;1251;60201;-71
2023/12/02 08:21:08;;;;;;;10.40;8.20;;;;;;;-0.41;100.00;98110.41;109576;1251;59822;-71
2023/12/02 08:23:34;;;;;;;10.60;8.70;;;;;;;-0.41;100.00;98112.52;109671;1250;59899;-71
2023/12/02 08:26:04;;;;;;;12.10;9.20;;;;;;;-0.41;100.00;98116.23;109590;1254;59802;-66
2023/12/02 08:28:31;;;;;;;12.20;10.20;;;;;;;-0.41;100.00;98122.84;109661;1250;67885;-67
2023/12/02 08:31:00;;;;;;;13.70;10.70;;;;;;;-0.41;100.00;98120.89;109627;1251;71535;-74
2023/12/02 08:33:26;;;;;;;12.50;9.70;;;;;;;-0.40;100.00;98120.84;109595;1250;59823;-70
2023/12/02 08:35:53;;;;;;;12.80;9.60;;;;;;;-0.40;100.00;98118.53;109688;1250;59790;-70
2023/12/02 08:38:19;;;;;;;14.00;10.80;;;;;;;-0.37;100.00;98111.15;109741;1251;60338;-72
2023/12/02 08:40:48;;;;;;;15.30;11.40;;;;;;;-0.36;100.00;98111.02;109586;1250;59744;-73
2023/12/02 08:43:15;;;;;;;14.90;10.50;;;;;;;-0.35;100.00;98114.30;109647;1251;72387;-72
2023/12/02 08:45:41;;;;;;;17.60;12.10;;;;;;;-0.34;100.00;98110.01;109651;1251;60447;-74
2023/12/02 08:48:08;;;;;;;13.40;10.40;;;;;;;-0.33;100.00;98110.42;109630;1251;60251;-72
2023/12/02 08:50:35;;;;;;;15.10;11.30;;;;;;;-0.33;100.00;98111.63;109635;1251;75247;-71
2023/12/02 08:53:01;;;;;;;16.10;12.00;;;;;;;-0.33;100.00;98108.83;109636;1251;59848;-74
2023/12/02 08:55:28;;;;;;;12.40;10.30;;;;;;;-0.32;100.00;98110.48;109627;1252;72651;-73
2023/12/02 08:57:55;;;;;;;14.10;10.80;;;;;;;-0.31;100.00;98101.48;109633;1251;62147;-67
2023/12/02 09:00:22;;;;;;;12.40;10.60;;;;;;;-0.30;100.00;98100.71;109609;1251;60481;-75
2023/12/02 09:02:48;;;;;;;13.00;10.30;;;;;;;-0.29;100.00;98111.48;109580;1251;75317;-75
2023/12/02 09:05:15;;;;;;;12.00;10.50;;;;;;;-0.30;100.00;98108.73;109583;1251;66790;-71
2023/12/02 09:07:41;;;;;;;14.40;10.70;;;;;;;-0.31;100.00;98103.58;109532;1251;71576;-71
2023/12/02 09:10:08;;;;;;;10.20;9.00;;;;;;;-0.31;100.00;98106.90;109610;1251;60047;-71
2023/12/02 09:12:35;;;;;;;10.20;8.60;;;;;;;-0.30;100.00;98094.30;109596;1251;60218;-73
2023/12/02 09:15:09;;;;;;;11.20;8.60;;;;;;;-0.28;100.00;98088.56;109579;1251;75269;-68
2023/12/02 09:18:12;;;;;;;10.50;8.60;;;;;;;-0.25;100.00;98077.61;109481;1251;66813;-72
2023/12/02 09:20:53;;;;;;;10.50;8.50;;;;;;;-0.20;100.00;98081.70;109524;1251;72480;-71
2023/12/02 09:23:20;;;;;;;11.20;8.50;;;;;;;-0.20;100.00;98081.69;109610;1250;59749;-70
2023/12/02 09:25:48;;;;;;;10.10;8.50;;;;;;;-0.19;100.00;98083.39;109638;1251;60091;-70
2023/12/02 09:28:16;;;;;;;9.00;7.90;;;;;;;-0.18;100.00;98085.73;109618;1251;75431;-67
2023/12/02 09:31:01;;;;;;;8.20;7.40;;;;;;;-0.17;100.00;98083.32;109616;1251;66441;-67
2023/12/02 09:33:36;;;;;;;9.20;7.40;;;;;;;-0.16;100.00;98075.60;109594;1250;71387;-67
2023/12/02 09:36:04;;;;;;;9.40;7.90;;;;;;;-0.16;100.00;98073.19;109629;1251;59859;-67
2023/12/02 09:38:32;;;;;;;9.90;7.70;;;;;;;-0.17;100.00;98066.83;109410;1251;60068;-68
2023/12/02 09:41:36;;;;;;;10.80;8.30;;;;;;;-0.18;100.00;98066.90;109674;1252;75228;-67
2023/12/02 09:44:03;;;;;;;7.90;6.80;;;;;;;-0.20;100.00;98052.94;109512;1252;67914;-70
2023/12/02 09:46:55;;;;;;;8.60;7.70;;;;;;;-0.21;100.00;98052.75;109607;1251;73329;-69
2023/12/02 09:49:31;;;;;;;7.90;7.00;;;;;;;-0.22;100.00;98046.51;109504;1252;61056;-67
2023/12/02 09:52:07;;;;;;;7.40;6.50;;;;;;;-0.21;100.00;98042.73;109583;1251;59734;-68
2023/12/02 09:54:36;;;;;;;;;;;;;;;-0.20;100.00;98047.52;109442;1251;250586;-65
2023/12/02 09:57:39;;;;;;;7.70;6.90;;;;;;;-0.20;100.00;98045.09;109577;1251;67672;-65
2023/12/02 10:00:09;;;;;;;8.70;7.40;;;;;;;-0.20;100.00;98033.58;109492;1251;72495;-65
2023/12/02 10:03:10;;;;;;;9.10;7.40;;;;;;;-0.19;100.00;98027.46;109429;1253;60291;-66
2023/12/02 10:06:03;;;;;;;9.90;7.40;;;;;;;-0.20;100.00;98034.48;109478;1251;59680;-66
2023/12/02 10:08:59;;;;;;;8.10;7.10;;;;;;;-0.19;100.00;98040.27;109512;1251;76719;-67
2023/12/02 10:11:43;;;;;;;8.60;7.10;;;;;;;-0.18;100.00;98026.77;109216;1251;66470;-67
2023/12/02 10:14:11;;;;;;;8.30;7.10;;;;;;;-0.17;100.00;98012.58;109543;1251;71305;-67
2023/12/02 10:16:40;;;;;;;8.20;7.00;;;;;;;-0.17;100.00;98006.66;109523;1250;61027;-70
2023/12/02 10:19:36;;;;;;;8.00;6.80;;;;;;;-0.17;100.00;98013.14;109635;1251;59722;-68
2023/12/02 10:22:03;;;;;;;8.80;7.60;;;;;;;-0.19;100.00;97999.89;109436;1251;75295;-67
2023/12/02 10:24:43;;;;;;;9.80;8.10;;;;;;;-0.20;100.00;98006.65;109430;1254;66963;-69
2023/12/02 10:27:13;;;;;;;9.50;7.20;;;;;;;-0.22;100.00;98001.73;109247;1251;72614;-70
2023/12/02 10:30:09;;;;;;;8.10;7.20;;;;;;;-0.22;100.00;97990.43;109368;1251;59933;-70
2023/12/02 10:32:36;;;;;;;9.70;7.70;;;;;;;-0.20;100.00;97985.03;109360;1251;60092;-70
2023/12/02 10:35:08;;;;;;;8.10;7.20;;;;;;;-0.20;100.00;97986.36;109489;1251;74109;-70
2023/12/02 10:37:36;;;;;;;7.60;6.80;;;;;;;-0.18;100.00;97971.23;109665;1251;67905;-69
2023/12/02 10:40:08;;;;;;;9.70;8.10;;;;;;;-0.17;100.00;97975.53;109638;1251;71676;-68
2023/12/02 10:42:50;;;;;;;7.70;6.90;;;;;;;-0.17;100.00;97978.45;109573;1250;61760;-70
2023/12/02 10:45:17;;;;;;;7.70;6.80;;;;;;;-0.16;100.00;97977.88;109475;1255;60167;-69
2023/12/02 10:47:45;;;;;;;7.20;6.50;;;;;;;-0.16;100.00;97974.49;109452;1251;75702;-71
2023/12/02 10:50:12;;;;;;;7.00;6.30;;;;;;;-0.16;100.00;97986.02;109550;1251;68082;-69
2023/12/02 10:52:38;;;;;;;8.40;6.50;;;;;;;-0.15;100.00;97992.38;109511;1251;71373;-72
2023/12/02 10:55:07;;;;;;;8.20;7.20;;;;;;;-0.14;100.00;97984.77;109504;1251;61101;-70
2023/12/02 10:57:33;;;;;;;10.20;8.10;;;;;;;-0.14;100.00;97994.05;108999;1255;59847;-70
2023/12/02 11:00:07;;;;;;;15.60;11.10;;;;;;;-0.13;100.00;97996.91;109102;1256;75274;-69
2023/12/02 11:02:38;;;;;;;14.20;9.70;;;;;;;-0.13;100.00;97991.98;109251;1257;67709;-70
2023/12/02 11:05:21;;;;;;;25.80;16.10;;;;;;;-0.13;100.00;97981.27;109217;1257;73837;-68
2023/12/02 11:07:51;;;;;;;35.40;19.90;;;;;;;-0.14;100.00;97987.23;109197;1257;59905;-69
2023/12/02 11:10:40;;;;;;;15.40;11.70;;;;;;;-0.15;100.00;97987.30;109214;1256;60228;-71